Time;durP1;ratioP1;P1;durP2;ratioP2;P2;SDS_P1;SDS_P2;PMS_P1;PMS_P2;Temp;Humidity;BMP_temperature;BMP_pressure;BME280_temperature;BME280_humidity;BME280_pressure;Samples;Min_cycle;Max_cycle;Signal;HPM_P1;HPM_P2
2024/01/16 00:01:02;;;;;;;1.20;1.20;;;0.30;99.90;;;;;;5239679;28;20170;-48
2024/01/16 00:03:33;;;;;;;3.03;1.00;;;0.10;99.90;;;;;;5244590;28;20513;-48
2024/01/16 00:06:04;;;;;;;2.73;1.23;;;0.10;99.90;;;;;;5248669;28;20577;-49
2024/01/16 00:08:34;;;;;;;1.70;1.17;;;0.00;99.90;;;;;;5245845;28;20600;-51
2024/01/16 00:11:05;;;;;;;2.87;1.03;;;-0.10;99.90;;;;;;5247367;28;20264;-48
2024/01/16 00:13:36;;;;;;;2.07;1.87;;;-0.20;99.90;;;;;;5246766;28;20186;-47
2024/01/16 00:16:06;;;;;;;6.40;1.77;;;-0.20;99.90;;;;;;5252914;28;20534;-47
2024/01/16 00:18:37;;;;;;;4.13;1.43;;;-0.20;99.90;;;;;;5245333;28;20194;-47
2024/01/16 00:21:07;;;;;;;3.90;1.47;;;-0.20;99.90;;;;;;5249313;28;20201;-49
2024/01/16 00:23:38;;;;;;;3.33;1.00;;;-0.20;99.90;;;;;;5248862;28;20601;-47
2024/01/16 00:26:20;;;;;;;2.80;2.27;;;-0.10;99.90;;;;;;5249688;28;20175;-48
2024/01/16 00:28:50;;;;;;;9.87;1.80;;;-0.10;99.90;;;;;;5246521;28;20234;-47
2024/01/16 00:31:21;;;;;;;1.30;1.20;;;-0.20;99.90;;;;;;5248178;28;20434;-47
2024/01/16 00:33:51;;;;;;;3.37;1.10;;;-0.20;99.90;;;;;;5241542;28;20521;-49
2024/01/16 00:36:22;;;;;;;1.90;1.57;;;-0.20;99.90;;;;;;5246039;28;20263;-47
2024/01/16 00:38:53;;;;;;;2.20;1.57;;;-0.20;99.90;;;;;;5243023;28;20305;-48
2024/01/16 00:41:23;;;;;;;1.17;1.17;;;-0.30;99.90;;;;;;5244041;28;20280;-48
2024/01/16 00:43:54;;;;;;;1.87;1.50;;;-0.40;99.90;;;;;;5249445;28;20201;-48
2024/01/16 00:46:25;;;;;;;1.33;0.93;;;-0.40;99.90;;;;;;5246359;28;20639;-50
2024/01/16 00:48:56;;;;;;;4.03;1.23;;;-0.60;99.90;;;;;;5242836;28;20237;-47
2024/01/16 00:51:26;;;;;;;4.10;1.50;;;-0.70;99.90;;;;;;5246412;28;20278;-48
2024/01/16 00:53:57;;;;;;;1.70;1.07;;;-0.70;99.90;;;;;;5242643;28;20197;-47
2024/01/16 00:56:28;;;;;;;4.60;1.67;;;-0.90;99.90;;;;;;5246058;28;20294;-48
2024/01/16 00:58:58;;;;;;;1.27;1.17;;;-0.90;99.90;;;;;;5248394;28;20610;-49
2024/01/16 01:01:29;;;;;;;4.83;1.03;;;-0.90;99.90;;;;;;5233691;28;20179;-48
2024/01/16 01:03:59;;;;;;;2.50;1.53;;;-0.90;99.90;;;;;;5244999;28;20192;-48
2024/01/16 01:06:30;;;;;;;3.33;1.30;;;-1.00;99.90;;;;;;5228792;28;20220;-49
2024/01/16 01:09:01;;;;;;;5.50;1.27;;;-1.00;99.90;;;;;;5248696;28;20198;-47
2024/01/16 01:11:31;;;;;;;1.30;1.00;;;-1.00;99.90;;;;;;5247787;28;20961;-48
2024/01/16 01:14:02;;;;;;;2.97;0.97;;;-1.10;99.90;;;;;;5249717;28;20182;-49
2024/01/16 01:16:33;;;;;;;1.10;0.87;;;-1.30;99.90;;;;;;5249146;28;20194;-49
2024/01/16 01:19:03;;;;;;;4.93;0.90;;;-1.30;99.90;;;;;;5250645;28;20278;-48
2024/01/16 01:21:35;;;;;;;5.47;1.37;;;-1.40;99.90;;;;;;5250918;28;20604;-48
2024/01/16 01:24:06;;;;;;;2.57;1.00;;;-1.40;99.90;;;;;;5251747;28;20194;-47
2024/01/16 01:26:36;;;;;;;1.70;0.83;;;-1.40;99.90;;;;;;5249758;28;21006;-50
2024/01/16 01:29:07;;;;;;;0.83;0.83;;;-1.30;99.90;;;;;;5230238;28;20246;-50
2024/01/16 01:31:38;;;;;;;2.73;0.70;;;-1.40;99.90;;;;;;5246661;28;20182;-47
2024/01/16 01:34:08;;;;;;;2.27;1.07;;;-1.40;99.90;;;;;;5250340;28;20196;-47
2024/01/16 01:36:39;;;;;;;0.77;0.73;;;-1.40;99.90;;;;;;5246271;28;20186;-48
2024/01/16 01:39:11;;;;;;;1.10;1.00;;;-1.50;99.90;;;;;;5246027;28;20218;-47
2024/01/16 01:41:41;;;;;;;4.80;0.70;;;-1.50;99.90;;;;;;5212217;28;20209;-47
2024/01/16 01:44:15;;;;;;;4.73;1.23;;;-1.60;99.90;;;;;;5247588;28;20911;-49
2024/01/16 01:46:46;;;;;;;4.40;0.80;;;-1.70;99.90;;;;;;5239803;28;20277;-47
2024/01/16 01:49:17;;;;;;;2.20;1.13;;;-1.80;99.90;;;;;;5244979;28;20547;-48
2024/01/16 01:51:49;;;;;;;2.53;1.03;;;-1.80;99.90;;;;;;5245058;28;20695;-48
2024/01/16 01:54:21;;;;;;;2.30;1.10;;;-1.80;99.90;;;;;;5249062;28;20187;-47
2024/01/16 01:56:53;;;;;;;5.00;1.23;;;-1.80;99.90;;;;;;5244278;28;20444;-48
2024/01/16 01:59:25;;;;;;;3.90;1.00;;;-1.80;99.90;;;;;;5240835;28;20483;-47
2024/01/16 02:01:56;;;;;;;2.03;1.00;;;-1.70;99.90;;;;;;5249424;28;20265;-48
2024/01/16 02:04:29;;;;;;;1.30;0.90;;;-1.70;99.90;;;;;;5248652;28;20538;-49
2024/01/16 02:07:00;;;;;;;1.00;0.90;;;-1.70;99.90;;;;;;5249328;28;20186;-48
2024/01/16 02:09:32;;;;;;;1.00;1.00;;;-1.70;99.90;;;;;;5242529;28;20471;-48
2024/01/16 02:12:02;;;;;;;0.83;0.80;;;-1.70;99.90;;;;;;5246604;28;21787;-47
2024/01/16 02:14:33;;;;;;;1.43;1.03;;;-1.70;99.90;;;;;;5243610;28;20428;-48
2024/01/16 02:17:04;;;;;;;3.17;2.20;;;-1.70;99.90;;;;;;5243209;28;20186;-47
2024/01/16 02:19:34;;;;;;;1.27;1.07;;;-1.60;99.90;;;;;;5246312;28;20569;-47
2024/01/16 02:22:11;;;;;;;2.50;1.10;;;-1.60;99.90;;;;;;5239359;28;20202;-48
2024/01/16 02:24:41;;;;;;;1.20;1.20;;;-1.60;99.90;;;;;;5241079;28;20623;-48
2024/01/16 02:27:12;;;;;;;2.77;1.20;;;-1.70;99.90;;;;;;5243797;28;20452;-50
2024/01/16 02:29:43;;;;;;;2.23;2.00;;;-1.60;99.90;;;;;;5243013;28;20209;-47
2024/01/16 02:32:15;;;;;;;14.03;6.67;;;-1.50;99.90;;;;;;5244390;28;20450;-47
2024/01/16 02:34:45;;;;;;;5.80;1.67;;;-1.50;99.90;;;;;;5248144;28;20186;-48
2024/01/16 02:37:16;;;;;;;1.03;1.00;;;-1.40;99.90;;;;;;5243706;28;20451;-50
2024/01/16 02:39:47;;;;;;;1.27;1.17;;;-1.50;99.90;;;;;;5240593;28;20207;-49
2024/01/16 02:42:17;;;;;;;1.17;0.80;;;-1.50;99.90;;;;;;5235041;28;20187;-48
2024/01/16 02:44:48;;;;;;;0.80;0.80;;;-1.50;99.90;;;;;;5242866;28;20186;-48
2024/01/16 02:47:18;;;;;;;1.53;0.80;;;-1.50;99.90;;;;;;5238139;28;20545;-49
2024/01/16 02:49:49;;;;;;;2.50;1.13;;;-1.50;99.90;;;;;;5225095;28;20198;-48
2024/01/16 02:52:20;;;;;;;1.43;0.90;;;-1.60;99.90;;;;;;5239634;28;20194;-48
2024/01/16 02:54:50;;;;;;;3.87;1.20;;;-1.70;99.90;;;;;;5240270;28;20558;-48
2024/01/16 02:57:21;;;;;;;1.07;0.97;;;-1.90;99.90;;;;;;5243538;28;20253;-49
2024/01/16 02:59:51;;;;;;;1.57;0.93;;;-2.00;99.90;;;;;;5236979;28;20218;-48
2024/01/16 03:02:23;;;;;;;9.13;1.53;;;-2.10;99.90;;;;;;5243617;28;20205;-49
2024/01/16 03:04:54;;;;;;;1.37;1.20;;;-2.10;99.90;;;;;;5242578;28;20312;-48
2024/01/16 03:07:25;;;;;;;1.07;1.07;;;-2.20;99.90;;;;;;5241869;28;20928;-50
2024/01/16 03:09:56;;;;;;;1.00;1.00;;;-2.30;99.90;;;;;;5243885;28;20449;-48
2024/01/16 03:12:26;;;;;;;1.57;1.47;;;-2.30;99.90;;;;;;5244641;28;20190;-49
2024/01/16 03:14:57;;;;;;;4.00;1.50;;;-2.40;99.90;;;;;;5237535;28;20206;-48
2024/01/16 03:17:28;;;;;;;2.00;1.20;;;-2.40;99.90;;;;;;5238062;28;20191;-47
2024/01/16 03:19:58;;;;;;;1.50;1.40;;;-2.30;99.90;;;;;;5238178;28;20206;-48
2024/01/16 03:22:29;;;;;;;2.10;1.50;;;-2.10;99.90;;;;;;5233059;28;20190;-48
2024/01/16 03:25:02;;;;;;;10.83;1.67;;;-2.10;99.90;;;;;;5237186;28;20228;-48
2024/01/16 03:27:32;;;;;;;2.77;1.20;;;-2.10;99.90;;;;;;5240729;28;20214;-47
2024/01/16 03:30:04;;;;;;;6.30;1.50;;;-2.10;99.90;;;;;;5238957;28;20459;-49
2024/01/16 03:32:38;;;;;;;3.10;1.50;;;-2.00;99.90;;;;;;5241031;28;20196;-49
2024/01/16 03:35:08;;;;;;;2.10;1.60;;;-1.90;99.90;;;;;;5240477;28;20831;-52
2024/01/16 03:37:39;;;;;;;7.53;1.20;;;-1.80;99.90;;;;;;5247640;28;20421;-47
2024/01/16 03:40:12;;;;;;;5.00;1.57;;;-1.70;99.90;;;;;;5241761;28;20570;-47
2024/01/16 03:42:42;;;;;;;3.67;1.67;;;-1.70;99.90;;;;;;5227241;28;20224;-48
2024/01/16 03:45:13;;;;;;;2.63;1.73;;;-1.60;99.90;;;;;;5246640;28;20436;-49
2024/01/16 03:47:44;;;;;;;1.47;1.37;;;-1.50;99.90;;;;;;5241163;28;20662;-49
2024/01/16 03:50:15;;;;;;;8.57;1.60;;;-1.50;99.90;;;;;;5244051;28;20194;-49
2024/01/16 03:52:46;;;;;;;1.53;1.43;;;-1.40;99.90;;;;;;5247293;28;20467;-49
2024/01/16 03:55:16;;;;;;;3.07;1.80;;;-1.40;99.90;;;;;;5249021;28;20198;-48
2024/01/16 03:57:47;;;;;;;1.80;1.70;;;-1.40;99.90;;;;;;5244989;28;20210;-47
2024/01/16 04:00:17;;;;;;;4.70;1.90;;;-1.30;99.90;;;;;;5245736;28;20572;-48
2024/01/16 04:02:48;;;;;;;1.57;1.47;;;-1.20;99.90;;;;;;5239435;28;20174;-49
2024/01/16 04:05:19;;;;;;;3.07;1.60;;;-1.30;99.90;;;;;;5236287;28;20180;-50
2024/01/16 04:07:49;;;;;;;3.87;1.70;;;-1.20;99.90;;;;;;5246000;28;20296;-51
2024/01/16 04:10:20;;;;;;;1.43;1.33;;;-1.20;99.90;;;;;;5238987;28;20252;-49
2024/01/16 04:12:51;;;;;;;3.10;1.37;;;-1.20;99.90;;;;;;5240723;28;20213;-48
2024/01/16 04:15:22;;;;;;;2.80;1.40;;;-1.30;99.90;;;;;;5222803;28;20187;-51
2024/01/16 04:17:52;;;;;;;14.00;2.30;;;-1.40;99.90;;;;;;5243907;28;20528;-49
2024/01/16 04:20:23;;;;;;;4.17;2.00;;;-1.50;99.90;;;;;;5241755;28;20210;-49
2024/01/16 04:22:53;;;;;;;1.80;1.70;;;-1.40;99.90;;;;;;5244075;28;20229;-49
2024/01/16 04:25:24;;;;;;;6.23;1.50;;;-1.30;99.90;;;;;;5234888;28;20262;-48
2024/01/16 04:27:55;;;;;;;1.57;1.50;;;-1.30;99.90;;;;;;5235146;28;20588;-49
2024/01/16 04:30:25;;;;;;;1.27;1.17;;;-1.30;99.90;;;;;;5250131;28;20667;-49
2024/01/16 04:32:56;;;;;;;3.27;2.10;;;-1.30;99.90;;;;;;5241233;28;20175;-49
2024/01/16 04:35:27;;;;;;;10.83;1.50;;;-1.30;99.90;;;;;;5244819;28;20206;-51
2024/01/16 04:37:57;;;;;;;5.37;2.27;;;-1.30;99.90;;;;;;5246226;28;20190;-48
2024/01/16 04:40:28;;;;;;;4.37;1.60;;;-1.20;99.90;;;;;;5239796;28;20214;-48
2024/01/16 04:42:59;;;;;;;8.40;2.53;;;-1.30;99.90;;;;;;5238224;28;20253;-48
2024/01/16 04:45:29;;;;;;;2.70;2.50;;;-1.30;99.90;;;;;;5237753;28;20609;-49
2024/01/16 04:48:01;;;;;;;2.00;1.90;;;-1.30;99.90;;;;;;5242960;28;20273;-50
2024/01/16 04:50:32;;;;;;;4.70;2.00;;;-1.40;99.90;;;;;;5258516;28;20966;-48
2024/01/16 04:53:03;;;;;;;4.93;2.60;;;-1.20;99.90;;;;;;5247311;28;20527;-49
2024/01/16 04:55:33;;;;;;;2.37;2.17;;;-1.30;99.90;;;;;;5229400;28;20182;-48
2024/01/16 04:58:04;;;;;;;2.53;2.33;;;-1.20;99.90;;;;;;5252394;28;20776;-48
2024/01/16 05:00:35;;;;;;;5.47;2.57;;;-1.30;99.90;;;;;;5241801;28;20569;-49
2024/01/16 05:03:06;;;;;;;2.57;2.20;;;-1.30;99.90;;;;;;5244445;28;20448;-48
2024/01/16 05:05:36;;;;;;;3.97;1.50;;;-1.40;99.90;;;;;;5237342;28;20183;-49
2024/01/16 05:08:07;;;;;;;6.47;2.00;;;-1.40;99.90;;;;;;5247313;28;20182;-49
2024/01/16 05:10:38;;;;;;;5.57;2.50;;;-1.30;99.90;;;;;;5242961;28;20181;-49
2024/01/16 05:13:08;;;;;;;2.47;2.00;;;-1.40;99.90;;;;;;5241008;28;20187;-47
2024/01/16 05:15:40;;;;;;;5.80;2.13;;;-1.40;99.90;;;;;;5244180;28;20185;-48
2024/01/16 05:18:11;;;;;;;4.47;2.20;;;-1.30;99.90;;;;;;5246660;28;20449;-52
2024/01/16 05:20:42;;;;;;;2.77;1.50;;;-1.40;99.90;;;;;;5243742;28;20472;-50
2024/01/16 05:23:12;;;;;;;2.10;2.00;;;-1.40;99.90;;;;;;5244134;28;20209;-50
2024/01/16 05:25:43;;;;;;;2.50;2.30;;;-1.40;99.90;;;;;;5250478;28;20240;-49
2024/01/16 05:28:14;;;;;;;2.00;1.90;;;-1.30;99.90;;;;;;5242767;28;20191;-50
2024/01/16 05:30:44;;;;;;;1.93;1.80;;;-1.20;99.90;;;;;;5240778;28;20769;-48
2024/01/16 05:33:15;;;;;;;1.90;1.87;;;-1.20;99.90;;;;;;5243281;28;20210;-48
2024/01/16 05:35:46;;;;;;;2.27;2.17;;;-1.30;99.90;;;;;;5243280;28;20180;-49
2024/01/16 05:38:16;;;;;;;2.20;2.10;;;-1.40;99.90;;;;;;5248125;28;20798;-48
2024/01/16 05:40:47;;;;;;;1.80;1.77;;;-1.50;99.90;;;;;;5235102;28;20216;-48
2024/01/16 05:43:18;;;;;;;2.67;2.10;;;-1.50;99.90;;;;;;5230653;28;20219;-48
2024/01/16 05:45:49;;;;;;;3.00;2.23;;;-1.60;99.90;;;;;;5240890;28;20206;-49
2024/01/16 05:48:20;;;;;;;2.60;2.40;;;-1.70;99.90;;;;;;5241136;28;20182;-49
2024/01/16 05:50:51;;;;;;;5.27;1.83;;;-1.80;99.90;;;;;;5241623;28;20444;-47
2024/01/16 05:53:22;;;;;;;7.87;2.60;;;-1.80;99.90;;;;;;5249025;28;20637;-48
2024/01/16 05:55:53;;;;;;;4.43;2.33;;;-1.80;99.90;;;;;;5246875;28;20191;-48
2024/01/16 05:58:24;;;;;;;3.23;2.67;;;-1.70;99.90;;;;;;5249193;28;20191;-49
2024/01/16 06:00:55;;;;;;;3.80;2.27;;;-1.80;99.90;;;;;;5241442;28;20437;-49
2024/01/16 06:03:26;;;;;;;6.90;2.27;;;-1.80;99.90;;;;;;5238089;28;20270;-50
2024/01/16 06:05:56;;;;;;;5.20;3.27;;;-1.80;99.90;;;;;;5233090;28;20536;-49
2024/01/16 06:08:27;;;;;;;3.57;2.40;;;-1.80;99.90;;;;;;5236760;28;20257;-48
2024/01/16 06:10:58;;;;;;;2.60;2.50;;;-1.70;99.90;;;;;;5243873;28;20732;-48
2024/01/16 06:13:31;;;;;;;3.47;3.17;;;-1.80;99.90;;;;;;5245716;28;20190;-49
2024/01/16 06:16:02;;;;;;;15.70;3.30;;;-1.80;99.90;;;;;;5243287;28;20217;-47
2024/01/16 06:18:34;;;;;;;4.33;2.40;;;-1.80;99.90;;;;;;5241929;28;20822;-49
2024/01/16 06:21:04;;;;;;;14.90;3.37;;;-1.70;99.90;;;;;;5245776;28;20438;-49
2024/01/16 06:23:35;;;;;;;5.87;3.20;;;-1.70;99.90;;;;;;5243263;28;20964;-49
2024/01/16 06:26:08;;;;;;;10.00;3.20;;;-1.60;99.90;;;;;;5245732;28;20201;-48
2024/01/16 06:28:42;;;;;;;2.43;2.33;;;-1.60;99.90;;;;;;5242790;28;20289;-49
2024/01/16 06:31:12;;;;;;;4.50;3.13;;;-1.70;99.90;;;;;;5240950;28;20540;-51
2024/01/16 06:33:43;;;;;;;3.67;3.10;;;-1.60;99.90;;;;;;5247142;28;20522;-49
2024/01/16 06:36:13;;;;;;;12.23;3.93;;;-1.70;99.90;;;;;;5244734;28;20265;-48
2024/01/16 06:38:44;;;;;;;8.50;3.27;;;-1.70;99.90;;;;;;5244184;28;20201;-48
2024/01/16 06:41:15;;;;;;;2.73;2.33;;;-1.70;99.90;;;;;;5245263;28;20182;-48
2024/01/16 06:43:45;;;;;;;4.43;3.67;;;-1.70;99.90;;;;;;5245509;28;20186;-49
2024/01/16 06:46:16;;;;;;;4.80;3.77;;;-1.70;99.90;;;;;;5247560;28;20256;-49
2024/01/16 06:48:48;;;;;;;3.03;2.83;;;-1.60;99.90;;;;;;5243959;28;20197;-49
2024/01/16 06:51:19;;;;;;;2.60;1.97;;;-1.60;99.90;;;;;;5234880;28;20651;-49
2024/01/16 06:53:49;;;;;;;12.10;2.80;;;-1.60;99.90;;;;;;5242272;28;20424;-48
2024/01/16 06:56:20;;;;;;;9.27;3.37;;;-1.60;99.90;;;;;;5241687;28;20427;-49
2024/01/16 06:58:50;;;;;;;3.90;2.63;;;-1.60;99.90;;;;;;5247592;28;20202;-48
2024/01/16 07:01:23;;;;;;;4.30;2.90;;;-1.50;99.90;;;;;;5240838;28;20212;-51
2024/01/16 07:03:53;;;;;;;2.63;2.30;;;-1.50;99.90;;;;;;5241153;28;20542;-50
2024/01/16 07:06:24;;;;;;;4.30;2.50;;;-1.50;99.90;;;;;;5237167;28;20429;-51
2024/01/16 07:08:54;;;;;;;3.67;2.70;;;-1.50;99.90;;;;;;5241761;28;20259;-48
2024/01/16 07:11:25;;;;;;;3.53;2.63;;;-1.40;99.90;;;;;;5245060;28;20232;-51
2024/01/16 07:13:56;;;;;;;9.57;3.30;;;-1.40;99.90;;;;;;5233435;28;20205;-47
2024/01/16 07:16:26;;;;;;;6.80;2.90;;;-1.30;99.90;;;;;;5245808;28;20197;-48
2024/01/16 07:18:57;;;;;;;2.10;2.00;;;-1.30;99.90;;;;;;5225276;28;20218;-48
2024/01/16 07:21:28;;;;;;;2.50;2.13;;;-1.30;99.90;;;;;;5243774;28;20201;-49
2024/01/16 07:23:59;;;;;;;3.33;2.50;;;-1.30;99.90;;;;;;5232293;28;20186;-48
2024/01/16 07:26:29;;;;;;;1.93;1.83;;;-1.30;99.90;;;;;;5240656;28;20274;-50
2024/01/16 07:29:00;;;;;;;5.83;2.70;;;-1.30;99.90;;;;;;5240152;28;20214;-48
2024/01/16 07:31:31;;;;;;;2.60;2.47;;;-1.20;99.90;;;;;;5240475;28;20444;-49
2024/01/16 07:34:01;;;;;;;3.60;2.60;;;-1.20;99.90;;;;;;5241980;28;20186;-48
2024/01/16 07:36:32;;;;;;;3.90;3.10;;;-1.10;99.90;;;;;;5242959;28;20243;-48
2024/01/16 07:39:03;;;;;;;7.00;2.67;;;-1.10;99.90;;;;;;5246310;28;20316;-47
2024/01/16 07:41:34;;;;;;;4.77;3.10;;;-1.00;99.90;;;;;;5242840;28;20175;-48
2024/01/16 07:44:05;;;;;;;7.60;3.50;;;-1.10;99.90;;;;;;5244680;28;20443;-48
2024/01/16 07:46:35;;;;;;;3.73;3.13;;;-0.90;99.90;;;;;;5242421;28;20249;-48
2024/01/16 07:49:06;;;;;;;5.97;3.30;;;-1.00;99.90;;;;;;5248529;28;20297;-48
2024/01/16 07:51:37;;;;;;;3.30;3.00;;;-0.80;99.90;;;;;;5254308;28;20279;-48
2024/01/16 07:54:09;;;;;;;2.67;2.47;;;-0.90;99.90;;;;;;5243245;28;20273;-49
2024/01/16 07:56:40;;;;;;;2.30;2.10;;;-0.80;99.90;;;;;;5250398;28;20638;-50
2024/01/16 07:59:10;;;;;;;6.27;3.40;;;-0.80;99.90;;;;;;5230937;28;20473;-48
2024/01/16 08:01:41;;;;;;;7.67;3.13;;;-0.70;99.90;;;;;;5239963;28;20251;-49
2024/01/16 08:04:12;;;;;;;4.63;3.37;;;-0.70;99.90;;;;;;5246949;28;20191;-49
2024/01/16 08:06:42;;;;;;;5.20;2.83;;;-0.70;99.90;;;;;;5244503;28;20182;-49
2024/01/16 08:09:14;;;;;;;3.30;2.87;;;-0.60;99.90;;;;;;5240364;28;20757;-50
2024/01/16 08:11:44;;;;;;;3.70;3.40;;;-0.50;99.90;;;;;;5245637;28;20202;-48
2024/01/16 08:14:15;;;;;;;2.23;2.13;;;-0.60;99.90;;;;;;5240156;28;20469;-49
2024/01/16 08:16:45;;;;;;;2.33;2.23;;;-0.50;99.90;;;;;;5239186;28;20195;-48
2024/01/16 08:19:16;;;;;;;5.37;3.23;;;-0.50;99.90;;;;;;5227469;28;20219;-50
2024/01/16 08:21:47;;;;;;;7.07;3.87;;;-0.50;99.90;;;;;;5244768;28;20278;-49
2024/01/16 08:24:18;;;;;;;10.73;3.83;;;-0.40;99.90;;;;;;5243616;28;20233;-48
2024/01/16 08:26:49;;;;;;;4.30;3.90;;;-0.30;99.90;;;;;;5238931;28;20649;-48
2024/01/16 08:29:20;;;;;;;10.10;3.87;;;-0.30;99.90;;;;;;5241576;28;20218;-49
2024/01/16 08:31:54;;;;;;;4.70;4.10;;;-0.20;99.90;;;;;;5241702;28;20448;-50
2024/01/16 08:34:24;;;;;;;9.33;5.10;;;-0.20;99.90;;;;;;5239688;28;20182;-49
2024/01/16 08:36:56;;;;;;;8.93;4.23;;;-0.20;99.90;;;;;;5241766;28;20436;-48
2024/01/16 08:39:27;;;;;;;6.00;4.07;;;-0.20;99.90;;;;;;5244131;28;20206;-49
2024/01/16 08:41:58;;;;;;;3.67;3.30;;;-0.10;99.90;;;;;;5252559;28;20428;-50
2024/01/16 08:44:29;;;;;;;5.20;4.67;;;-0.10;99.90;;;;;;5247047;28;20428;-47
2024/01/16 08:47:02;;;;;;;5.27;3.63;;;0.20;99.90;;;;;;5245718;28;20638;-48
2024/01/16 08:49:33;;;;;;;4.90;4.07;;;0.10;99.90;;;;;;5239667;28;20962;-49
2024/01/16 08:52:05;;;;;;;9.33;4.87;;;0.20;99.90;;;;;;5242887;28;20432;-49
2024/01/16 08:54:35;;;;;;;4.33;3.93;;;0.20;99.90;;;;;;5240219;28;20449;-49
2024/01/16 08:57:06;;;;;;;5.90;3.83;;;0.30;99.90;;;;;;5244658;28;20917;-50
2024/01/16 08:59:37;;;;;;;5.40;4.37;;;0.40;99.90;;;;;;5243266;28;20398;-49
2024/01/16 09:02:08;;;;;;;6.43;4.17;;;0.40;99.90;;;;;;5241807;28;20185;-47
2024/01/16 09:04:38;;;;;;;15.20;3.90;;;0.50;99.90;;;;;;5237506;28;20238;-49
2024/01/16 09:07:09;;;;;;;7.10;3.60;;;0.50;99.90;;;;;;5241626;28;20429;-49
2024/01/16 09:09:41;;;;;;;8.03;3.70;;;0.60;99.90;;;;;;5240105;28;20672;-48
2024/01/16 09:12:12;;;;;;;4.53;3.80;;;0.70;99.90;;;;;;5240927;28;20193;-47
2024/01/16 09:14:43;;;;;;;6.47;4.30;;;0.60;99.90;;;;;;5244353;28;20417;-51
2024/01/16 09:17:13;;;;;;;4.27;3.90;;;0.60;99.90;;;;;;5248142;28;20194;-49
2024/01/16 09:19:44;;;;;;;7.40;3.50;;;0.60;99.90;;;;;;5247112;28;20202;-51
2024/01/16 09:22:16;;;;;;;4.63;4.10;;;0.70;99.90;;;;;;5244637;28;20643;-48
2024/01/16 09:24:46;;;;;;;6.10;5.00;;;0.60;99.90;;;;;;5243823;28;20634;-49
2024/01/16 09:27:17;;;;;;;6.70;4.50;;;0.70;99.90;;;;;;5242103;28;20424;-47
2024/01/16 09:29:47;;;;;;;5.37;4.40;;;0.70;99.90;;;;;;5243553;28;20205;-48
2024/01/16 09:32:18;;;;;;;6.20;4.80;;;0.70;99.90;;;;;;5240697;28;20186;-50
2024/01/16 09:34:49;;;;;;;13.13;5.00;;;0.70;99.90;;;;;;5247018;28;20286;-50
2024/01/16 09:37:20;;;;;;;5.53;5.13;;;0.70;99.90;;;;;;5241439;28;20468;-48
2024/01/16 09:39:51;;;;;;;9.93;5.03;;;0.80;99.90;;;;;;5235131;28;20306;-49
2024/01/16 09:42:22;;;;;;;4.87;4.40;;;0.80;99.90;;;;;;5245389;28;20179;-49
2024/01/16 09:44:55;;;;;;;5.90;4.60;;;0.80;99.90;;;;;;5233501;22;20560;-50
2024/01/16 09:47:26;;;;;;;6.97;5.10;;;0.80;99.90;;;;;;5146878;28;21041;-51
2024/01/16 09:49:59;;;;;;;5.40;4.90;;;0.80;99.90;;;;;;5152313;28;20462;-50
2024/01/16 09:52:30;;;;;;;12.67;5.20;;;0.90;99.90;;;;;;5155220;28;20438;-49
2024/01/16 09:55:00;;;;;;;5.30;4.90;;;0.90;99.90;;;;;;5155328;28;20797;-51
2024/01/16 09:57:32;;;;;;;9.00;4.57;;;0.90;99.90;;;;;;5156993;28;20196;-50
2024/01/16 10:00:05;;;;;;;8.93;5.10;;;0.90;99.90;;;;;;5163175;28;20228;-49
2024/01/16 10:02:35;;;;;;;6.17;4.00;;;0.90;99.90;;;;;;5160964;28;20444;-49
2024/01/16 10:05:11;;;;;;;5.37;4.20;;;0.90;99.90;;;;;;5155940;28;20476;-50
2024/01/16 10:07:44;;;;;;;3.53;3.30;;;1.10;99.90;;;;;;5156988;28;21012;-53
2024/01/16 10:10:14;;;;;;;3.67;3.37;;;1.30;99.90;;;;;;5159752;28;20448;-51
2024/01/16 10:12:47;;;;;;;5.90;3.57;;;1.60;99.90;;;;;;5152224;28;20443;-51
2024/01/16 10:15:20;;;;;;;4.27;3.87;;;1.80;99.90;;;;;;5160396;28;20294;-51
2024/01/16 10:17:52;;;;;;;3.10;3.00;;;1.90;99.90;;;;;;5162280;28;20579;-51
2024/01/16 10:20:34;;;;;;;5.97;3.80;;;2.10;99.90;;;;;;5157173;28;20464;-51
2024/01/16 10:23:04;;;;;;;5.20;4.03;;;2.20;99.90;;;;;;5159841;28;20432;-50
2024/01/16 10:25:37;;;;;;;4.10;3.53;;;2.30;99.90;;;;;;5163485;28;20463;-50
2024/01/16 10:28:11;;;;;;;9.70;3.43;;;2.30;99.90;;;;;;5159850;28;20185;-52
2024/01/16 10:30:42;;;;;;;4.20;3.80;;;2.30;99.90;;;;;;5155928;28;20439;-54
2024/01/16 10:33:16;;;;;;;4.53;3.13;;;2.30;99.90;;;;;;5154808;28;20433;-52
2024/01/16 10:35:46;;;;;;;3.60;3.30;;;2.40;99.90;;;;;;5138696;28;20208;-50
2024/01/16 10:38:25;;;;;;;2.60;2.40;;;2.40;99.90;;;;;;5164020;28;20439;-50
2024/01/16 10:41:24;;;;;;;2.40;2.20;;;2.30;99.90;;;;;;5149910;28;20688;-51
2024/01/16 10:44:08;;;;;;;2.50;2.40;;;2.30;99.90;;;;;;5242006;28;20440;-49
2024/01/16 10:46:39;;;;;;;3.87;3.37;;;2.30;99.90;;;;;;5159303;28;20583;-50
2024/01/16 10:49:10;;;;;;;4.57;2.43;;;2.30;99.90;;;;;;5159101;28;20535;-49
2024/01/16 10:51:43;;;;;;;4.83;3.03;;;2.50;99.90;;;;;;5157098;28;20185;-52
2024/01/16 10:54:15;;;;;;;6.90;3.27;;;2.60;99.90;;;;;;5159065;28;20181;-51
2024/01/16 10:56:47;;;;;;;3.00;2.80;;;2.50;99.90;;;;;;5164747;28;20495;-51
2024/01/16 10:59:38;;;;;;;6.50;3.80;;;2.50;99.90;;;;;;5159319;28;20468;-49
2024/01/16 11:02:14;;;;;;;2.93;2.73;;;2.60;99.90;;;;;;5161757;28;20443;-50
2024/01/16 11:04:48;;;;;;;4.30;2.93;;;2.60;99.90;;;;;;5159096;28;20448;-51
2024/01/16 11:07:19;;;;;;;1.60;1.60;;;2.60;99.90;;;;;;5161365;28;20523;-50
2024/01/16 11:09:50;;;;;;;1.87;1.73;;;2.50;99.90;;;;;;5158743;28;20460;-49
2024/01/16 11:12:22;;;;;;;4.27;2.30;;;2.40;99.90;;;;;;5163208;28;20433;-51
2024/01/16 11:14:53;;;;;;;4.07;2.47;;;2.40;99.90;;;;;;5165677;28;20657;-49
2024/01/16 11:17:24;;;;;;;4.43;2.37;;;2.30;99.90;;;;;;5152396;28;20440;-51
2024/01/16 11:19:55;;;;;;;7.80;2.83;;;2.20;99.90;;;;;;5159243;28;20452;-49
2024/01/16 11:22:28;;;;;;;3.90;2.70;;;2.10;99.90;;;;;;5163701;28;20432;-50
2024/01/16 11:25:12;;;;;;;3.50;2.27;;;1.90;99.90;;;;;;5163240;28;21020;-50
2024/01/16 11:27:47;;;;;;;3.30;2.90;;;1.90;99.90;;;;;;5157471;28;20496;-50
2024/01/16 11:30:31;;;;;;;4.00;2.90;;;1.80;99.90;;;;;;5159450;28;20457;-58
2024/01/16 11:33:01;;;;;;;5.00;2.40;;;1.70;99.90;;;;;;5162262;28;21463;-51
2024/01/16 11:35:37;;;;;;;3.43;2.20;;;1.60;99.90;;;;;;5159627;28;20460;-50
2024/01/16 11:38:14;;;;;;;2.73;2.53;;;1.60;99.90;;;;;;5157468;28;20176;-49
2024/01/16 11:40:45;;;;;;;2.63;2.43;;;1.70;99.90;;;;;;5156101;28;20467;-51
2024/01/16 11:43:39;;;;;;;10.60;3.10;;;1.70;99.90;;;;;;5158377;28;20437;-49
2024/01/16 11:46:10;;;;;;;8.13;3.00;;;1.80;99.90;;;;;;5158588;28;20945;-51
2024/01/16 11:48:42;;;;;;;5.90;3.00;;;1.80;99.90;;;;;;5243192;28;20543;-50
2024/01/16 11:51:24;;;;;;;5.70;2.93;;;1.70;99.90;;;;;;5158232;28;20733;-50
2024/01/16 11:53:54;;;;;;;6.00;3.80;;;1.70;99.90;;;;;;5162458;28;20432;-50
2024/01/16 11:56:38;;;;;;;3.53;3.23;;;1.60;99.90;;;;;;5243946;28;20490;-53
2024/01/16 11:59:28;;;;;;;9.73;3.80;;;1.50;99.90;;;;;;5160805;28;20231;-49
2024/01/16 12:02:00;;;;;;;8.90;2.60;;;1.40;99.90;;;;;;5154939;28;20433;-50
2024/01/16 12:04:31;;;;;;;19.43;4.13;;;1.40;99.90;;;;;;5153668;28;20924;-51
2024/01/16 12:07:01;;;;;;;7.73;3.30;;;1.50;99.90;;;;;;5162427;28;20485;-50
2024/01/16 12:09:33;;;;;;;5.70;4.10;;;1.50;99.90;;;;;;5162473;28;20202;-50
2024/01/16 12:12:04;;;;;;;8.00;4.03;;;1.40;99.90;;;;;;5161788;28;20524;-51
2024/01/16 12:14:35;;;;;;;10.70;5.53;;;1.40;99.90;;;;;;5160666;28;20435;-51
2024/01/16 12:17:13;;;;;;;7.00;4.27;;;1.50;99.90;;;;;;5163266;28;20855;-51
2024/01/16 12:19:44;;;;;;;10.43;5.00;;;1.60;99.90;;;;;;5163112;28;20462;-50
2024/01/16 12:22:21;;;;;;;6.47;4.13;;;1.70;99.90;;;;;;5162084;28;20435;-50
2024/01/16 12:24:56;;;;;;;11.63;5.03;;;1.70;99.90;;;;;;5163377;28;20212;-50
2024/01/16 12:27:27;;;;;;;8.73;5.17;;;1.70;99.90;;;;;;5161869;28;20440;-51
2024/01/16 12:30:08;;;;;;;7.50;5.57;;;1.60;99.90;;;;;;5156399;28;20456;-53
2024/01/16 12:32:38;;;;;;;10.07;3.90;;;1.70;99.90;;;;;;5155175;28;20195;-51
2024/01/16 12:35:09;;;;;;;10.17;5.13;;;1.70;99.90;;;;;;5155930;28;21010;-50
2024/01/16 12:37:39;;;;;;;12.93;3.60;;;1.80;99.90;;;;;;5165543;28;20260;-50
2024/01/16 12:40:10;;;;;;;5.93;3.93;;;1.70;99.90;;;;;;5163201;28;20219;-50
2024/01/16 12:42:41;;;;;;;5.80;4.20;;;1.70;99.90;;;;;;5164554;28;20188;-51
2024/01/16 12:45:12;;;;;;;9.57;4.57;;;1.80;99.90;;;;;;5160371;28;20292;-52
2024/01/16 12:47:44;;;;;;;5.43;3.63;;;1.80;99.90;;;;;;5146323;28;20178;-52
2024/01/16 12:50:22;;;;;;;5.10;4.60;;;1.70;99.90;;;;;;5158753;28;20444;-53
2024/01/16 12:53:07;;;;;;;12.00;3.80;;;1.70;99.90;;;;;;5158009;28;20952;-52
2024/01/16 12:55:40;;;;;;;8.07;4.80;;;1.70;99.90;;;;;;5158209;28;20471;-52
2024/01/16 12:58:19;;;;;;;7.37;4.37;;;1.80;99.90;;;;;;5160049;28;20523;-53
2024/01/16 13:00:51;;;;;;;6.33;3.83;;;1.90;99.90;;;;;;5243441;28;20463;-51
2024/01/16 13:03:26;;;;;;;12.80;3.87;;;1.90;99.90;;;;;;5166465;28;20424;-51
2024/01/16 13:06:00;;;;;;;5.43;3.33;;;1.90;99.90;;;;;;5163433;28;20540;-53
2024/01/16 13:08:31;;;;;;;6.37;3.43;;;1.90;99.90;;;;;;5162558;28;20436;-51
2024/01/16 13:11:03;;;;;;;7.00;3.77;;;2.10;99.90;;;;;;5165565;28;20443;-52
2024/01/16 13:13:34;;;;;;;7.63;3.33;;;2.10;99.90;;;;;;5161288;28;20436;-52